createdAt,value
2022-09-14T00:01:47.108Z,63.78
2022-09-14T00:04:18.876Z,63.86
2022-09-14T00:06:49.764Z,63.89
2022-09-14T00:09:21.863Z,64.03
2022-09-14T00:11:52.497Z,63.93
2022-09-14T00:14:22.356Z,63.91
2022-09-14T00:16:52.279Z,64.26
2022-09-14T00:19:24.561Z,64.53
2022-09-14T00:21:57.715Z,64.63
2022-09-14T00:24:30.170Z,64.81
2022-09-14T00:26:59.426Z,65.25
2022-09-14T00:29:28.562Z,65.56
2022-09-14T00:31:58.741Z,65.32
2022-09-14T00:34:28.023Z,66.15
2022-09-14T00:36:58.496Z,66.16
2022-09-14T00:39:28.238Z,66.02
2022-09-14T00:41:57.140Z,66.01
2022-09-14T00:45:01.793Z,65.86
2022-09-14T00:47:32.956Z,66.30
2022-09-14T00:50:04.532Z,66.43
2022-09-14T00:52:38.561Z,66.49
2022-09-14T00:55:10.503Z,66.46
2022-09-14T00:57:44.305Z,66.50
2022-09-14T01:00:15.916Z,66.45
2022-09-14T01:02:45.231Z,66.76
2022-09-14T01:05:15.544Z,67.16
2022-09-14T01:07:58.096Z,67.20
2022-09-14T01:10:38.426Z,67.20
2022-09-14T01:13:16.681Z,67.46
2022-09-14T01:15:57.117Z,67.35
2022-09-14T01:18:30.620Z,67.22
2022-09-14T01:21:05.042Z,67.43
2022-09-14T01:23:43.715Z,67.56
2022-09-14T01:26:51.900Z,67.75
2022-09-14T01:29:26.282Z,67.96
2022-09-14T01:32:01.389Z,68.27
2022-09-14T01:34:34.982Z,67.50
2022-09-14T01:37:13.001Z,67.52
2022-09-14T01:39:46.790Z,67.30
2022-09-14T01:42:18.178Z,67.39
2022-09-14T01:44:53.324Z,67.63
2022-09-14T01:47:28.672Z,67.25
2022-09-14T01:50:05.558Z,67.03
2022-09-14T01:52:43.652Z,67.06
2022-09-14T01:55:19.681Z,67.05
2022-09-14T01:57:54.662Z,66.96
2022-09-14T02:00:25.117Z,67.05
2022-09-14T02:02:58.754Z,67.18
2022-09-14T02:05:38.645Z,67.18
2022-09-14T02:08:08.667Z,67.10
2022-09-14T02:10:37.740Z,68.03
2022-09-14T02:13:07.313Z,66.99
2022-09-14T02:15:38.723Z,67.04
2022-09-14T02:18:07.919Z,67.22
2022-09-14T02:20:43.054Z,67.25
2022-09-14T02:23:12.151Z,67.02
2022-09-14T02:25:41.397Z,66.71
2022-09-14T02:28:10.464Z,66.93
2022-09-14T02:31:23.915Z,66.70
2022-09-14T02:34:02.562Z,66.69
2022-09-14T02:36:46.234Z,66.88
2022-09-14T02:39:25.335Z,66.86
2022-09-14T02:42:04.295Z,67.17
2022-09-14T02:44:40.637Z,66.85
2022-09-14T02:47:18.458Z,66.75
2022-09-14T02:49:56.950Z,66.70
2022-09-14T02:52:34.324Z,66.87
2022-09-14T02:55:09.156Z,67.02
2022-09-14T02:58:06.381Z,66.86
2022-09-14T03:00:38.463Z,67.01
2022-09-14T03:03:10.730Z,66.97
2022-09-14T03:05:40.181Z,67.01
2022-09-14T03:08:10.334Z,67.07
2022-09-14T03:10:39.936Z,67.34
2022-09-14T03:13:09.005Z,67.08
2022-09-14T03:15:38.188Z,66.99
2022-09-14T03:18:14.141Z,66.93
2022-09-14T03:20:44.510Z,66.86
2022-09-14T03:23:14.287Z,66.73
2022-09-14T03:25:45.278Z,66.62
2022-09-14T03:28:14.680Z,66.57
2022-09-14T03:30:43.648Z,66.54
2022-09-14T03:33:15.393Z,66.61
2022-09-14T03:35:44.439Z,66.64
2022-09-14T03:38:13.335Z,66.65
2022-09-14T03:40:42.343Z,66.69
2022-09-14T03:43:12.568Z,66.58
2022-09-14T03:45:42.290Z,66.46
2022-09-14T03:48:11.530Z,66.48
2022-09-14T03:50:42.185Z,66.46
2022-09-14T03:53:11.256Z,66.71
2022-09-14T03:55:41.941Z,66.53
2022-09-14T03:58:11.019Z,66.32
2022-09-14T04:00:42.326Z,66.32
2022-09-14T04:03:11.198Z,66.13
2022-09-14T04:05:41.826Z,66.29
2022-09-14T04:08:10.736Z,66.25
2022-09-14T04:10:40.984Z,66.17
2022-09-14T04:13:10.044Z,66.26
2022-09-14T04:15:38.904Z,66.46
2022-09-14T04:18:07.906Z,66.35
2022-09-14T04:20:37.288Z,66.47
2022-09-14T04:23:07.505Z,66.50
2022-09-14T04:25:36.311Z,66.89
2022-09-14T04:28:22.368Z,67.30
2022-09-14T04:30:59.152Z,66.95
2022-09-14T04:33:31.123Z,67.25
2022-09-14T04:36:01.697Z,67.26
2022-09-14T04:38:34.035Z,67.47
2022-09-14T04:41:06.744Z,67.46
2022-09-14T04:43:36.297Z,68.17
2022-09-14T04:46:06.116Z,68.09
2022-09-14T04:48:36.188Z,67.90
2022-09-14T04:51:06.376Z,68.13
2022-09-14T04:53:38.124Z,68.53
2022-09-14T04:56:09.373Z,68.86
2022-09-14T04:58:39.622Z,69.08
2022-09-14T05:01:10.657Z,68.93
2022-09-14T05:03:40.890Z,69.35
2022-09-14T05:06:12.180Z,69.53
2022-09-14T05:08:43.531Z,69.21
2022-09-14T05:11:16.420Z,69.44
2022-09-14T05:13:49.704Z,69.53
2022-09-14T05:16:22.645Z,69.08
2022-09-14T05:18:53.336Z,69.19
2022-09-14T05:21:23.765Z,68.86
2022-09-14T05:23:57.730Z,68.96
2022-09-14T05:26:28.984Z,68.55
2022-09-14T05:28:59.877Z,68.85
2022-09-14T05:31:31.493Z,68.96
2022-09-14T05:34:01.091Z,68.97
2022-09-14T05:36:30.159Z,68.96
2022-09-14T05:39:01.010Z,69.14
2022-09-14T05:41:30.028Z,68.79
2022-09-14T05:44:01.019Z,69.01
2022-09-14T05:46:29.937Z,69.01
2022-09-14T05:48:58.961Z,68.97
2022-09-14T05:51:29.466Z,69.35
2022-09-14T05:54:00.868Z,69.27
2022-09-14T05:56:32.454Z,69.14
2022-09-14T05:59:01.454Z,68.96
2022-09-14T06:01:32.748Z,69.34
2022-09-14T06:04:03.278Z,69.20
2022-09-14T06:06:33.260Z,69.27
2022-09-14T06:09:04.624Z,69.20
2022-09-14T06:11:36.284Z,69.27
2022-09-14T06:14:05.562Z,69.53
2022-09-14T06:16:35.118Z,69.13
2022-09-14T06:19:04.562Z,69.63
2022-09-14T06:21:34.139Z,69.29
2022-09-14T06:24:05.991Z,69.73
2022-09-14T06:26:34.957Z,69.91
2022-09-14T06:29:04.288Z,69.80
2022-09-14T06:31:33.283Z,69.96
2022-09-14T06:34:03.811Z,69.94
2022-09-14T06:36:32.916Z,69.84
2022-09-14T06:39:02.107Z,69.78
2022-09-14T06:41:33.064Z,70.03
2022-09-14T06:44:02.751Z,70.11
2022-09-14T06:46:33.030Z,69.88
2022-09-14T06:49:03.942Z,69.76
2022-09-14T06:51:35.326Z,69.75
2022-09-14T06:54:04.947Z,69.92
2022-09-14T06:56:37.123Z,69.84
2022-09-14T06:59:06.738Z,69.50
2022-09-14T07:01:36.264Z,69.61
2022-09-14T07:04:05.340Z,69.49
2022-09-14T07:06:39.791Z,69.64
2022-09-14T07:09:09.348Z,69.80
2022-09-14T07:11:40.842Z,69.73
2022-09-14T07:14:10.811Z,69.78
2022-09-14T07:16:40.990Z,69.99
2022-09-14T07:19:12.819Z,69.86
2022-09-14T07:21:42.772Z,70.20
2022-09-14T07:24:12.970Z,70.14
2022-09-14T07:26:43.993Z,70.16
2022-09-14T07:29:15.463Z,69.94
2022-09-14T07:31:46.124Z,70.35
2022-09-14T07:34:16.194Z,70.09
2022-09-14T07:36:45.570Z,70.12
2022-09-14T07:39:15.441Z,69.90
2022-09-14T07:41:46.756Z,70.67
2022-09-14T07:44:18.007Z,70.37
2022-09-14T07:46:48.231Z,70.36
2022-09-14T07:49:18.623Z,70.51
2022-09-14T07:51:48.920Z,70.38
2022-09-14T07:54:19.262Z,70.30
2022-09-14T07:56:50.647Z,70.49
2022-09-14T07:59:36.996Z,69.96
2022-09-14T08:02:08.162Z,69.54
2022-09-14T08:04:39.290Z,69.48
2022-09-14T08:07:09.182Z,69.27
2022-09-14T08:09:40.071Z,69.35
2022-09-14T08:12:10.753Z,69.31
2022-09-14T08:14:39.859Z,69.30
2022-09-14T08:17:10.327Z,69.26
2022-09-14T08:19:41.188Z,69.10
2022-09-14T08:22:10.441Z,69.12
2022-09-14T08:24:40.209Z,69.23
2022-09-14T08:27:12.257Z,68.70
2022-09-14T08:29:41.726Z,68.60
2022-09-14T08:32:13.887Z,68.57
2022-09-14T08:34:43.112Z,68.45
2022-09-14T08:37:13.246Z,68.19
2022-09-14T08:39:42.403Z,68.25
2022-09-14T08:42:15.285Z,68.18
2022-09-14T08:44:48.194Z,68.10
2022-09-14T08:47:23.369Z,67.91
2022-09-14T08:49:58.317Z,67.85
2022-09-14T08:52:29.479Z,67.67
2022-09-14T08:55:01.999Z,67.32
2022-09-14T08:57:47.798Z,67.25
2022-09-14T09:00:19.682Z,67.09
2022-09-14T09:03:11.299Z,67.26
2022-09-14T09:05:47.851Z,66.93
2022-09-14T09:08:22.585Z,66.80
2022-09-14T09:10:53.815Z,66.82
2022-09-14T09:13:27.860Z,66.50
2022-09-14T09:16:00.970Z,66.76
2022-09-14T09:18:40.827Z,66.57
2022-09-14T09:21:14.792Z,66.72
2022-09-14T09:23:44.750Z,66.23
2022-09-14T09:26:18.219Z,66.16
2022-09-14T09:28:50.862Z,66.10
2022-09-14T09:31:26.616Z,66.00
2022-09-14T09:34:17.983Z,65.87
2022-09-14T09:36:49.527Z,66.04
2022-09-14T09:39:19.108Z,66.08
2022-09-14T09:41:54.174Z,66.06
2022-09-14T09:44:24.771Z,66.12
2022-09-14T09:46:56.551Z,66.01
2022-09-14T09:49:31.637Z,65.93
2022-09-14T09:52:09.922Z,65.63
2022-09-14T09:54:42.222Z,65.71
2022-09-14T09:57:24.295Z,65.25
2022-09-14T10:00:11.396Z,65.30
2022-09-14T10:02:42.088Z,65.48
2022-09-14T10:05:23.511Z,65.56
2022-09-14T10:07:56.658Z,65.68
2022-09-14T10:10:40.310Z,65.53
2022-09-14T10:13:28.695Z,65.11
2022-09-14T10:16:09.766Z,65.25
2022-09-14T10:18:49.826Z,65.08
2022-09-14T10:21:20.692Z,65.11
2022-09-14T10:24:06.137Z,64.99
2022-09-14T10:26:39.368Z,65.12
2022-09-14T10:29:35.434Z,64.85
2022-09-14T10:32:17.695Z,64.54
2022-09-14T10:34:47.274Z,64.60
2022-09-14T10:37:32.140Z,64.54
2022-09-14T10:40:16.407Z,64.57
2022-09-14T10:42:59.226Z,64.71
2022-09-14T10:45:35.442Z,64.45
2022-09-14T10:48:35.779Z,64.16
2022-09-14T10:51:24.833Z,64.28
2022-09-14T10:54:02.488Z,64.05
2022-09-14T10:56:46.073Z,64.01
2022-09-14T10:59:28.130Z,64.07
2022-09-14T11:02:14.767Z,64.05
2022-09-14T11:05:05.513Z,63.99
2022-09-14T11:07:42.424Z,63.65
2022-09-14T11:10:23.275Z,63.37
2022-09-14T11:13:10.550Z,63.20
2022-09-14T11:15:48.461Z,63.26
2022-09-14T11:18:27.522Z,63.12
2022-09-14T11:21:04.303Z,62.40
2022-09-14T11:23:46.874Z,62.20
2022-09-14T11:26:20.282Z,62.21
2022-09-14T11:28:53.631Z,62.50
2022-09-14T11:31:26.861Z,62.11
2022-09-14T11:34:01.216Z,61.72
2022-09-14T11:36:35.616Z,61.87
2022-09-14T11:39:12.722Z,61.84
2022-09-14T11:41:48.590Z,61.52
2022-09-14T11:44:20.486Z,61.84
2022-09-14T11:47:00.486Z,61.76
2022-09-14T11:49:39.756Z,61.88
2022-09-14T11:52:16.621Z,61.91
2022-09-14T11:54:46.977Z,61.71
2022-09-14T11:57:19.732Z,61.39
2022-09-14T11:59:52.308Z,61.17
2022-09-14T12:03:00.602Z,61.57
2022-09-14T12:05:34.972Z,61.14
2022-09-14T12:08:29.188Z,61.47
2022-09-14T12:11:03.665Z,61.07
2022-09-14T12:13:33.922Z,60.25
2022-09-14T12:16:05.083Z,59.80
2022-09-14T12:18:38.375Z,59.89
2022-09-14T12:21:09.401Z,60.10
2022-09-14T12:23:52.229Z,60.58
2022-09-14T12:26:32.783Z,60.47
2022-09-14T12:29:28.785Z,60.46
2022-09-14T12:32:07.172Z,59.84
2022-09-14T12:34:36.324Z,60.09
2022-09-14T12:37:31.263Z,60.09
2022-09-14T12:40:36.451Z,59.97
2022-09-14T12:43:48.144Z,59.89
2022-09-14T12:46:36.361Z,60.25
2022-09-14T12:49:23.577Z,60.62
2022-09-14T12:51:53.232Z,60.24
2022-09-14T12:54:30.391Z,60.13
2022-09-14T12:57:21.095Z,60.00
2022-09-14T12:59:58.869Z,60.01
2022-09-14T13:02:57.890Z,60.04
2022-09-14T13:05:28.843Z,59.75
2022-09-14T13:07:58.455Z,59.77
2022-09-14T13:10:33.161Z,60.15
2022-09-14T13:13:07.815Z,59.80
2022-09-14T13:15:40.463Z,59.78
2022-09-14T13:18:34.730Z,59.73
2022-09-14T13:21:05.816Z,59.74
2022-09-14T13:23:42.610Z,59.67
2022-09-14T13:26:13.242Z,60.11
2022-09-14T13:28:46.193Z,60.05
2022-09-14T13:31:18.861Z,60.31
2022-09-14T13:33:52.951Z,60.84
2022-09-14T13:36:25.158Z,61.44
2022-09-14T13:38:55.800Z,61.01
2022-09-14T13:41:25.881Z,60.20
2022-09-14T13:43:58.043Z,59.44
2022-09-14T13:46:28.742Z,58.81
2022-09-14T13:48:58.540Z,58.66
2022-09-14T13:51:31.460Z,57.94
2022-09-14T13:54:18.958Z,58.26
2022-09-14T13:57:08.252Z,58.43
2022-09-14T13:59:39.539Z,57.89
2022-09-14T14:02:15.005Z,57.95
2022-09-14T14:04:50.802Z,57.77
2022-09-14T14:07:23.104Z,58.16
2022-09-14T14:09:54.759Z,58.17
2022-09-14T14:12:26.748Z,58.10
2022-09-14T14:14:59.517Z,58.29
2022-09-14T14:17:36.872Z,58.53
2022-09-14T14:20:32.676Z,58.76
2022-09-14T14:23:15.888Z,58.79
2022-09-14T14:25:48.584Z,59.11
2022-09-14T14:28:19.806Z,58.96
2022-09-14T14:30:51.916Z,58.93
2022-09-14T14:33:22.596Z,59.03
2022-09-14T14:35:54.590Z,59.01
2022-09-14T14:38:25.066Z,59.01
2022-09-14T14:40:58.083Z,58.96
2022-09-14T14:43:29.182Z,59.10
2022-09-14T14:46:01.301Z,58.80
2022-09-14T14:48:31.755Z,59.10
2022-09-14T14:51:01.454Z,59.17
2022-09-14T14:53:30.390Z,59.43
2022-09-14T14:55:59.453Z,59.40
2022-09-14T14:58:29.456Z,59.70
2022-09-14T15:00:59.773Z,59.59
2022-09-14T15:03:28.746Z,59.67
2022-09-14T15:05:57.876Z,59.94
2022-09-14T15:08:26.824Z,59.83
2022-09-14T15:10:58.005Z,59.83
2022-09-14T15:13:27.072Z,59.84
2022-09-14T15:15:55.978Z,59.97
2022-09-14T15:18:26.288Z,59.79
2022-09-14T15:20:55.325Z,59.45
2022-09-14T15:23:24.288Z,59.42
2022-09-14T15:25:53.250Z,59.25
2022-09-14T15:28:22.128Z,59.57
2022-09-14T15:30:51.896Z,59.13
2022-09-14T15:33:20.858Z,59.23
2022-09-14T15:35:56.780Z,59.36
2022-09-14T15:38:25.992Z,59.85
2022-09-14T15:40:55.324Z,60.67
2022-09-14T15:43:24.188Z,60.38
2022-09-14T15:45:53.382Z,60.36
2022-09-14T15:48:22.624Z,60.16
2022-09-14T15:50:51.503Z,59.23
2022-09-14T15:53:21.790Z,59.09
2022-09-14T15:55:50.870Z,58.54
2022-09-14T15:58:19.935Z,57.70
2022-09-14T16:00:49.021Z,57.78
2022-09-14T16:03:17.974Z,58.13
2022-09-14T16:05:46.832Z,57.98
2022-09-14T16:08:15.665Z,57.65
2022-09-14T16:10:45.930Z,57.24
2022-09-14T16:13:14.807Z,57.47
2022-09-14T16:15:44.188Z,57.04
2022-09-14T16:18:13.244Z,56.72
2022-09-14T16:20:42.211Z,56.73
2022-09-14T16:23:11.263Z,56.52
2022-09-14T16:25:40.719Z,56.48
2022-09-14T16:28:11.001Z,56.79
2022-09-14T16:30:39.956Z,56.43
2022-09-14T16:33:09.415Z,56.25
2022-09-14T16:35:38.264Z,55.98
2022-09-14T16:38:07.108Z,55.85
2022-09-14T16:40:39.012Z,55.73
2022-09-14T16:43:12.619Z,55.85
2022-09-14T16:45:41.919Z,55.98
2022-09-14T16:48:10.681Z,56.56
2022-09-14T16:50:39.678Z,56.40
2022-09-14T16:53:09.010Z,56.23
2022-09-14T16:55:38.009Z,56.38
2022-09-14T16:58:07.057Z,56.41
2022-09-14T17:00:39.405Z,56.62
2022-09-14T17:03:11.750Z,56.55
2022-09-14T17:05:40.997Z,56.53
2022-09-14T17:08:10.422Z,56.60
2022-09-14T17:10:39.859Z,56.71
2022-09-14T17:13:10.292Z,56.73
2022-09-14T17:15:40.960Z,56.82
2022-09-14T17:18:10.643Z,56.88
2022-09-14T17:20:39.732Z,56.97
2022-09-14T17:23:08.805Z,57.02
2022-09-14T17:25:37.898Z,57.09
2022-09-14T17:28:07.081Z,57.17
2022-09-14T17:30:36.167Z,57.07
2022-09-14T17:33:06.690Z,57.28
2022-09-14T17:35:35.847Z,57.34
2022-09-14T17:38:04.889Z,57.40
2022-09-14T17:40:34.851Z,57.52
2022-09-14T17:43:04.008Z,57.59
2022-09-14T17:45:32.962Z,57.56
2022-09-14T17:48:02.760Z,57.68
2022-09-14T17:50:33.374Z,57.50
2022-09-14T17:53:02.592Z,57.61
2022-09-14T17:55:34.408Z,58.02
2022-09-14T17:58:07.603Z,57.99
2022-09-14T18:00:36.929Z,58.06
2022-09-14T18:03:06.572Z,58.07
2022-09-14T18:05:37.715Z,58.08
2022-09-14T18:08:07.076Z,58.25
2022-09-14T18:10:37.874Z,58.21
2022-09-14T18:13:07.345Z,58.46
2022-09-14T18:15:40.456Z,58.51
2022-09-14T18:18:10.251Z,58.60
2022-09-14T18:20:41.148Z,58.63
2022-09-14T18:23:10.683Z,58.70
2022-09-14T18:25:41.104Z,58.57
2022-09-14T18:28:10.743Z,58.54
2022-09-14T18:30:43.493Z,58.70
2022-09-14T18:33:13.809Z,58.68
2022-09-14T18:35:44.625Z,58.89
2022-09-14T18:38:14.296Z,58.94
2022-09-14T18:40:44.185Z,59.02
2022-09-14T18:43:13.462Z,59.06
2022-09-14T18:45:43.425Z,59.01
2022-09-14T18:48:13.703Z,59.08
2022-09-14T18:50:44.383Z,59.21
2022-09-14T18:53:13.866Z,59.09
2022-09-14T18:55:44.352Z,59.30
2022-09-14T18:58:13.721Z,59.13
2022-09-14T19:00:45.710Z,59.23
2022-09-14T19:03:14.938Z,59.15
2022-09-14T19:05:45.793Z,59.29
2022-09-14T19:08:15.024Z,59.36
2022-09-14T19:10:44.041Z,59.20
2022-09-14T19:13:13.042Z,59.46
2022-09-14T19:15:42.890Z,59.26
2022-09-14T19:18:11.571Z,59.29
2022-09-14T19:21:04.738Z,59.47
2022-09-14T19:23:31.762Z,59.56
2022-09-14T19:26:05.902Z,59.44
2022-09-14T19:28:35.489Z,59.39
2022-09-14T19:31:06.471Z,59.44
2022-09-14T19:33:36.008Z,59.72
2022-09-14T19:36:06.586Z,59.70
2022-09-14T19:38:37.522Z,59.63
2022-09-14T19:41:07.435Z,59.55
2022-09-14T19:43:37.897Z,59.82
2022-09-14T19:46:09.777Z,59.70
2022-09-14T19:48:39.640Z,59.86
2022-09-14T19:51:11.115Z,59.88
2022-09-14T19:53:41.537Z,59.74
2022-09-14T19:56:14.371Z,59.81
2022-09-14T19:58:45.034Z,59.76
2022-09-14T20:01:16.983Z,59.85
2022-09-14T20:03:46.879Z,59.90
2022-09-14T20:06:21.299Z,59.89
2022-09-14T20:08:53.808Z,59.98
2022-09-14T20:11:24.645Z,60.11
2022-09-14T20:13:55.741Z,59.94
2022-09-14T20:16:28.653Z,59.96
2022-09-14T20:18:58.746Z,59.95
2022-09-14T20:21:29.016Z,59.91
2022-09-14T20:24:15.815Z,60.07
2022-09-14T20:26:46.747Z,60.16
2022-09-14T20:29:17.615Z,60.13
2022-09-14T20:31:47.378Z,60.05
2022-09-14T20:34:19.696Z,60.11
2022-09-14T20:36:49.085Z,60.16
2022-09-14T20:39:20.665Z,60.26
2022-09-14T20:41:49.829Z,60.10
2022-09-14T20:44:22.110Z,60.03
2022-09-14T20:46:52.195Z,60.14
2022-09-14T20:49:23.356Z,60.42
2022-09-14T20:51:54.393Z,60.29
2022-09-14T20:54:25.907Z,60.44
2022-09-14T20:56:55.001Z,60.34
2022-09-14T20:59:25.243Z,60.38
2022-09-14T21:01:54.356Z,60.40
2022-09-14T21:04:25.600Z,60.41
2022-09-14T21:06:56.714Z,60.47
2022-09-14T21:09:27.829Z,60.46
2022-09-14T21:11:57.487Z,60.58
2022-09-14T21:14:29.158Z,60.53
2022-09-14T21:16:58.690Z,60.69
2022-09-14T21:19:29.790Z,60.63
2022-09-14T21:22:00.045Z,60.82
2022-09-14T21:24:31.175Z,60.92
2022-09-14T21:27:00.579Z,60.74
2022-09-14T21:29:29.768Z,60.82
2022-09-14T21:31:59.452Z,60.90
2022-09-14T21:34:28.946Z,61.24
2022-09-14T21:36:58.383Z,61.33
2022-09-14T21:39:30.593Z,61.12
2022-09-14T21:42:00.492Z,61.37
2022-09-14T21:44:31.129Z,61.35
2022-09-14T21:47:02.101Z,61.50
2022-09-14T21:49:31.434Z,61.58
2022-09-14T21:52:00.606Z,61.57
2022-09-14T21:54:31.218Z,61.31
2022-09-14T21:57:00.367Z,61.58
2022-09-14T21:59:29.640Z,61.62
2022-09-14T22:01:59.218Z,61.59
2022-09-14T22:04:28.178Z,61.46
2022-09-14T22:06:59.379Z,61.56
2022-09-14T22:09:32.535Z,61.60
2022-09-14T22:12:01.688Z,61.62
2022-09-14T22:14:30.978Z,61.46
2022-09-14T22:17:00.128Z,61.72
2022-09-14T22:19:31.133Z,61.71
2022-09-14T22:22:00.918Z,61.76
2022-09-14T22:24:37.774Z,61.63
2022-09-14T22:27:09.272Z,61.70
2022-09-14T22:29:40.626Z,61.84
2022-09-14T22:32:12.182Z,61.93
2022-09-14T22:34:43.221Z,61.88
2022-09-14T22:37:15.512Z,61.78
2022-09-14T22:39:46.346Z,61.68
2022-09-14T22:42:15.521Z,61.88
2022-09-14T22:44:44.933Z,61.81
2022-09-14T22:47:14.187Z,61.92
2022-09-14T22:49:43.020Z,61.78
2022-09-14T22:52:13.145Z,61.75
2022-09-14T22:54:42.410Z,61.73
2022-09-14T22:57:12.945Z,61.94
2022-09-14T22:59:42.652Z,61.68
2022-09-14T23:02:11.809Z,61.79
2022-09-14T23:04:41.011Z,61.71
2022-09-14T23:07:10.275Z,61.60
2022-09-14T23:09:39.648Z,61.52
2022-09-14T23:12:09.029Z,61.51
2022-09-14T23:14:39.683Z,61.55
2022-09-14T23:17:08.934Z,61.47
2022-09-14T23:19:37.858Z,61.34
2022-09-14T23:22:07.377Z,61.48
2022-09-14T23:24:36.352Z,61.56
2022-09-14T23:27:05.769Z,61.59
2022-09-14T23:29:35.106Z,61.64
2022-09-14T23:32:05.884Z,61.46
2022-09-14T23:34:34.902Z,61.49
2022-09-14T23:37:04.396Z,61.53
2022-09-14T23:39:33.387Z,61.45
2022-09-14T23:42:03.853Z,61.40
2022-09-14T23:44:32.970Z,61.45
2022-09-14T23:47:02.004Z,61.45
2022-09-14T23:49:32.208Z,61.54
2022-09-14T23:52:01.279Z,61.57
2022-09-14T23:54:30.091Z,61.65
2022-09-14T23:56:58.982Z,61.50
2022-09-14T23:59:28.052Z,61.39
